createdAt,value
2022-12-11T00:00:10.151Z,94.98
2022-12-11T00:00:42.379Z,95.14
2022-12-11T00:01:20.368Z,95.41
2022-12-11T00:01:52.338Z,95.54
2022-12-11T00:02:24.227Z,95.50
2022-12-11T00:02:56.722Z,95.69
2022-12-11T00:03:28.795Z,95.66
2022-12-11T00:04:00.697Z,95.69
2022-12-11T00:04:32.671Z,95.74
2022-12-11T00:05:04.897Z,95.62
2022-12-11T00:05:41.802Z,95.59
2022-12-11T00:06:17.446Z,95.74
2022-12-11T00:06:50.623Z,95.37
2022-12-11T00:07:22.599Z,95.28
2022-12-11T00:07:56.327Z,95.33
2022-12-11T00:08:28.340Z,95.13
2022-12-11T00:09:00.282Z,95.54
2022-12-11T00:09:32.357Z,95.69
2022-12-11T00:10:04.802Z,95.52
2022-12-11T00:10:38.016Z,95.50
2022-12-11T00:11:12.927Z,95.67
2022-12-11T00:11:45.265Z,95.47
2022-12-11T00:12:17.081Z,95.25
2022-12-11T00:12:48.896Z,95.01
2022-12-11T00:13:20.698Z,95.33
2022-12-11T00:13:52.678Z,95.57
2022-12-11T00:14:24.695Z,95.76
2022-12-11T00:14:56.589Z,95.78
2022-12-11T00:15:29.204Z,95.79
2022-12-11T00:16:01.096Z,95.69
2022-12-11T00:16:33.066Z,96.08
2022-12-11T00:17:05.383Z,96.10
2022-12-11T00:17:37.331Z,95.88
2022-12-11T00:18:13.758Z,96.14
2022-12-11T00:18:45.569Z,96.54
2022-12-11T00:19:17.536Z,96.55
2022-12-11T00:19:49.756Z,96.30
2022-12-11T00:20:21.995Z,96.35
2022-12-11T00:20:53.861Z,96.58
2022-12-11T00:21:26.045Z,96.68
2022-12-11T00:21:57.865Z,96.33
2022-12-11T00:22:31.167Z,95.81
2022-12-11T00:23:05.523Z,95.68
2022-12-11T00:23:38.232Z,95.62
2022-12-11T00:24:10.584Z,95.76
2022-12-11T00:24:42.423Z,95.58
2022-12-11T00:25:14.306Z,95.75
2022-12-11T00:25:47.586Z,95.87
2022-12-11T00:26:20.052Z,96.12
2022-12-11T00:26:52.220Z,95.73
2022-12-11T00:27:24.283Z,95.05
2022-12-11T00:27:56.396Z,95.09
2022-12-11T00:28:28.304Z,95.30
2022-12-11T00:29:00.313Z,95.73
2022-12-11T00:29:32.259Z,95.74
2022-12-11T00:30:04.985Z,95.71
2022-12-11T00:30:42.017Z,95.69
2022-12-11T00:31:17.166Z,95.91
2022-12-11T00:31:49.129Z,95.47
2022-12-11T00:32:20.992Z,95.19
2022-12-11T00:32:52.857Z,95.35
2022-12-11T00:33:27.047Z,95.49
2022-12-11T00:33:58.897Z,95.94
2022-12-11T00:34:30.806Z,95.91
2022-12-11T00:35:02.654Z,95.87
2022-12-11T00:35:37.929Z,95.85
2022-12-11T00:36:34.202Z,95.99
2022-12-11T00:37:06.097Z,96.01
2022-12-11T00:37:38.129Z,96.49
2022-12-11T00:38:15.860Z,97.24
2022-12-11T00:38:48.888Z,97.35
2022-12-11T00:39:20.755Z,97.01
2022-12-11T00:39:52.609Z,96.80
2022-12-11T00:40:24.467Z,96.67
2022-12-11T00:40:59.997Z,96.71
2022-12-11T00:41:32.374Z,96.11
2022-12-11T00:42:04.336Z,96.41
2022-12-11T00:42:36.146Z,96.35
2022-12-11T00:43:08.140Z,96.18
2022-12-11T00:43:40.036Z,96.48
2022-12-11T00:44:12.199Z,96.52
2022-12-11T00:44:44.060Z,96.22
2022-12-11T00:45:15.966Z,96.22
2022-12-11T00:45:48.509Z,96.18
2022-12-11T00:46:20.420Z,96.50
2022-12-11T00:46:52.321Z,96.23
2022-12-11T00:47:24.141Z,96.31
2022-12-11T00:47:56.030Z,95.72
2022-12-11T00:48:27.960Z,95.63
2022-12-11T00:48:59.787Z,95.91
2022-12-11T00:49:32.095Z,95.95
2022-12-11T00:50:04.234Z,96.06
2022-12-11T00:50:36.629Z,96.05
2022-12-11T00:51:08.500Z,96.00
2022-12-11T00:51:40.325Z,95.81
2022-12-11T00:52:12.110Z,95.96
2022-12-11T00:52:44.001Z,95.93
2022-12-11T00:53:15.837Z,95.57
2022-12-11T00:53:47.715Z,95.44
2022-12-11T00:54:19.529Z,95.36
2022-12-11T00:54:51.666Z,95.24
2022-12-11T00:55:23.626Z,95.39
2022-12-11T00:55:55.467Z,95.44
2022-12-11T00:56:27.350Z,95.22
2022-12-11T00:56:59.215Z,95.20
2022-12-11T00:57:31.015Z,95.15
2022-12-11T00:58:02.923Z,95.15
2022-12-11T00:58:34.763Z,95.67
2022-12-11T00:59:07.025Z,96.21
2022-12-11T00:59:39.242Z,96.07
2022-12-11T01:00:12.721Z,95.92
2022-12-11T01:00:45.192Z,95.73
2022-12-11T01:01:20.262Z,95.15
2022-12-11T01:01:52.182Z,95.13
2022-12-11T01:02:24.076Z,95.84
2022-12-11T01:02:55.932Z,95.95
2022-12-11T01:03:27.813Z,95.86
2022-12-11T01:03:59.669Z,95.64
2022-12-11T01:04:31.771Z,95.56
2022-12-11T01:05:04.182Z,95.68
2022-12-11T01:05:37.235Z,95.49
2022-12-11T01:06:14.197Z,95.53
2022-12-11T01:06:46.022Z,95.35
2022-12-11T01:07:17.984Z,94.93
2022-12-11T01:07:51.082Z,94.51
2022-12-11T01:08:23.018Z,94.66
2022-12-11T01:09:15.276Z,94.22
2022-12-11T01:10:05.640Z,94.07
2022-12-11T01:10:37.827Z,93.95
2022-12-11T01:11:11.995Z,94.84
2022-12-11T01:11:43.999Z,95.21
2022-12-11T01:12:16.043Z,95.44
2022-12-11T01:12:47.894Z,95.62
2022-12-11T01:13:19.708Z,95.47
2022-12-11T01:13:51.670Z,95.23
2022-12-11T01:14:23.584Z,95.33
2022-12-11T01:14:55.429Z,95.13
2022-12-11T01:15:41.624Z,95.13
2022-12-11T01:16:15.993Z,94.99
2022-12-11T01:16:48.016Z,94.96
2022-12-11T01:17:19.990Z,95.02
2022-12-11T01:17:52.178Z,94.82
2022-12-11T01:18:24.387Z,94.71
2022-12-11T01:18:57.409Z,94.78
2022-12-11T01:19:29.244Z,94.42
2022-12-11T01:20:01.065Z,94.18
2022-12-11T01:20:33.027Z,94.10
2022-12-11T01:21:10.534Z,94.36
2022-12-11T01:21:42.658Z,94.42
2022-12-11T01:22:14.524Z,94.55
2022-12-11T01:22:46.382Z,95.01
2022-12-11T01:23:18.263Z,95.05
2022-12-11T01:23:51.284Z,95.04
2022-12-11T01:24:23.090Z,94.65
2022-12-11T01:24:54.914Z,94.54
2022-12-11T01:25:27.939Z,94.37
2022-12-11T01:26:11.685Z,94.54
2022-12-11T01:26:43.917Z,94.88
2022-12-11T01:27:15.994Z,94.63
2022-12-11T01:27:51.861Z,94.41
2022-12-11T01:28:23.694Z,94.40
2022-12-11T01:28:55.529Z,94.50
2022-12-11T01:29:27.359Z,94.96
2022-12-11T01:29:59.662Z,95.44
2022-12-11T01:30:32.194Z,95.69
2022-12-11T01:31:09.229Z,95.50
2022-12-11T01:31:41.453Z,95.20
2022-12-11T01:32:13.657Z,95.58
2022-12-11T01:32:45.776Z,96.20
2022-12-11T01:33:17.614Z,96.34
2022-12-11T01:33:49.608Z,95.98
2022-12-11T01:34:21.482Z,95.87
2022-12-11T01:34:53.408Z,95.67
2022-12-11T01:35:25.220Z,95.37
2022-12-11T01:35:57.065Z,95.24
2022-12-11T01:36:28.998Z,95.29
2022-12-11T01:37:00.820Z,95.23
2022-12-11T01:37:33.812Z,95.03
2022-12-11T01:38:05.650Z,94.92
2022-12-11T01:38:37.765Z,94.89
2022-12-11T01:39:09.573Z,95.18
2022-12-11T01:39:41.492Z,95.59
2022-12-11T01:40:15.233Z,95.93
2022-12-11T01:40:51.536Z,96.02
2022-12-11T01:41:23.500Z,95.68
2022-12-11T01:41:59.314Z,95.24
2022-12-11T01:42:31.144Z,95.23
2022-12-11T01:43:03.314Z,95.36
2022-12-11T01:43:35.333Z,95.42
2022-12-11T01:44:15.325Z,94.97
2022-12-11T01:44:47.115Z,94.71
2022-12-11T01:45:21.458Z,94.18
2022-12-11T01:45:53.474Z,94.34
2022-12-11T01:46:26.409Z,94.64
2022-12-11T01:46:58.595Z,94.74
2022-12-11T01:47:30.486Z,94.64
2022-12-11T01:48:08.367Z,94.51
2022-12-11T01:48:42.363Z,94.66
2022-12-11T01:49:17.478Z,94.62
2022-12-11T01:49:49.293Z,95.14
2022-12-11T01:50:21.208Z,95.15
2022-12-11T01:50:59.913Z,94.87
2022-12-11T01:51:36.150Z,94.30
2022-12-11T01:52:19.594Z,94.43
2022-12-11T01:52:52.258Z,94.04
2022-12-11T01:53:32.013Z,93.41
2022-12-11T01:54:09.351Z,93.30
2022-12-11T01:54:42.363Z,94.65
2022-12-11T01:55:14.911Z,95.04
2022-12-11T01:55:48.612Z,94.96
2022-12-11T01:56:20.562Z,95.17
2022-12-11T01:56:54.382Z,95.26
2022-12-11T01:57:26.211Z,95.15
2022-12-11T01:57:58.458Z,94.86
2022-12-11T01:58:46.563Z,94.36
2022-12-11T01:59:23.552Z,94.43
2022-12-11T01:59:56.310Z,94.27
2022-12-11T02:00:28.266Z,93.92
2022-12-11T02:01:02.695Z,93.58
2022-12-11T02:01:43.382Z,93.92
2022-12-11T02:02:23.744Z,93.90
2022-12-11T02:02:55.676Z,93.74
2022-12-11T02:03:27.620Z,93.06
2022-12-11T02:03:59.965Z,92.82
2022-12-11T02:04:35.361Z,92.83
2022-12-11T02:05:09.423Z,92.89
2022-12-11T02:05:41.439Z,92.90
2022-12-11T02:06:38.662Z,92.87
2022-12-11T02:07:10.820Z,93.59
2022-12-11T02:07:48.948Z,93.77
2022-12-11T02:08:21.315Z,93.44
2022-12-11T02:08:53.185Z,93.63
2022-12-11T02:09:31.768Z,94.19
2022-12-11T02:10:04.881Z,93.91
2022-12-11T02:11:08.495Z,94.39
2022-12-11T02:12:03.166Z,94.22
2022-12-11T02:13:04.267Z,93.89
2022-12-11T02:14:05.976Z,94.39
2022-12-11T02:14:59.311Z,94.18
2022-12-11T02:15:35.703Z,94.84
2022-12-11T02:16:20.858Z,94.50
2022-12-11T02:17:01.117Z,94.65
2022-12-11T02:17:44.126Z,95.13
2022-12-11T02:18:39.972Z,96.64
2022-12-11T02:19:49.689Z,96.45
2022-12-11T02:20:27.521Z,95.24
2022-12-11T02:21:18.126Z,94.20
2022-12-11T02:21:55.784Z,93.83
2022-12-11T02:22:39.641Z,93.98
2022-12-11T02:23:26.585Z,94.57
2022-12-11T02:24:07.447Z,94.25
2022-12-11T02:24:54.730Z,94.04
2022-12-11T02:25:29.351Z,93.93
2022-12-11T02:26:34.742Z,94.29
2022-12-11T02:27:21.784Z,94.12
2022-12-11T02:28:12.311Z,93.67
2022-12-11T02:28:57.481Z,92.57
2022-12-11T02:29:55.380Z,93.09
2022-12-11T02:30:28.036Z,93.95
2022-12-11T02:31:07.333Z,94.33
2022-12-11T02:31:47.631Z,94.05
2022-12-11T02:32:22.719Z,93.66
2022-12-11T02:32:59.004Z,93.89
2022-12-11T02:33:44.023Z,93.94
2022-12-11T02:34:26.097Z,93.91
2022-12-11T02:35:20.633Z,93.66
2022-12-11T02:35:53.733Z,94.13
2022-12-11T02:36:29.194Z,94.45
2022-12-11T02:37:07.301Z,95.01
2022-12-11T02:37:43.517Z,95.18
2022-12-11T02:38:25.409Z,95.31
2022-12-11T02:39:01.482Z,94.93
2022-12-11T02:39:38.810Z,94.83
2022-12-11T02:40:15.035Z,94.58
2022-12-11T02:40:50.311Z,94.55
2022-12-11T02:41:24.160Z,94.37
2022-12-11T02:41:56.822Z,94.33
2022-12-11T02:42:32.476Z,94.25
2022-12-11T02:43:07.898Z,94.38
2022-12-11T02:43:42.073Z,93.97
2022-12-11T02:44:16.846Z,94.38
2022-12-11T02:44:51.843Z,94.65
2022-12-11T02:45:25.186Z,94.05
2022-12-11T02:45:59.158Z,94.11
2022-12-11T02:46:33.093Z,94.40
2022-12-11T02:47:08.880Z,94.51
2022-12-11T02:47:43.334Z,94.93
2022-12-11T02:48:17.304Z,94.64
2022-12-11T02:48:51.392Z,94.46
2022-12-11T02:49:24.449Z,94.08
2022-12-11T02:50:00.511Z,94.72
2022-12-11T02:50:36.415Z,95.14
2022-12-11T02:51:10.301Z,95.23
2022-12-11T02:51:44.410Z,94.96
2022-12-11T02:52:21.249Z,94.39
2022-12-11T02:52:57.484Z,94.27
2022-12-11T02:53:32.363Z,93.72
2022-12-11T02:54:08.725Z,93.49
2022-12-11T02:54:44.766Z,92.98
2022-12-11T02:55:17.181Z,92.42
2022-12-11T02:55:54.574Z,92.37
2022-12-11T02:56:46.723Z,92.68
2022-12-11T02:57:36.099Z,93.23
2022-12-11T02:58:19.731Z,93.46
2022-12-11T02:59:07.217Z,93.29
2022-12-11T02:59:42.603Z,92.98
2022-12-11T03:00:16.697Z,92.77
2022-12-11T03:00:48.544Z,93.03
2022-12-11T03:01:20.388Z,92.58
2022-12-11T03:01:52.526Z,92.94
2022-12-11T03:02:24.792Z,93.10
2022-12-11T03:02:57.357Z,92.63
2022-12-11T03:03:30.764Z,92.00
2022-12-11T03:04:02.933Z,91.70
2022-12-11T03:04:36.547Z,91.68
2022-12-11T03:05:10.445Z,91.89
2022-12-11T03:05:42.908Z,91.65
2022-12-11T03:06:20.242Z,91.79
2022-12-11T03:06:59.964Z,91.94
2022-12-11T03:07:36.211Z,91.69
2022-12-11T03:08:08.123Z,92.07
2022-12-11T03:08:39.975Z,92.27
2022-12-11T03:09:13.694Z,92.29
2022-12-11T03:09:47.549Z,92.57
2022-12-11T03:10:19.966Z,93.68
2022-12-11T03:10:52.684Z,94.16
2022-12-11T03:11:24.554Z,93.94
2022-12-11T03:11:56.412Z,93.26
2022-12-11T03:12:32.582Z,92.88
2022-12-11T03:13:05.218Z,92.88
2022-12-11T03:13:39.030Z,93.52
2022-12-11T03:14:11.433Z,93.41
2022-12-11T03:14:44.210Z,93.17
2022-12-11T03:15:18.669Z,92.57
2022-12-11T03:16:13.680Z,92.73
2022-12-11T03:17:11.901Z,92.65
2022-12-11T03:18:05.054Z,92.71
2022-12-11T03:19:29.651Z,92.42
2022-12-11T03:20:52.643Z,92.95
2022-12-11T03:21:33.267Z,92.76
2022-12-11T03:22:10.635Z,92.12
2022-12-11T03:23:00.330Z,92.09
2022-12-11T03:23:39.725Z,92.92
2022-12-11T03:24:37.625Z,92.70
2022-12-11T03:25:26.036Z,92.59
2022-12-11T03:26:06.373Z,93.11
2022-12-11T03:26:43.595Z,93.37
2022-12-11T03:27:38.235Z,93.53
2022-12-11T03:28:21.102Z,93.34
2022-12-11T03:29:02.491Z,93.25
2022-12-11T03:29:41.067Z,93.42
2022-12-11T03:30:22.458Z,92.72
2022-12-11T03:30:54.735Z,92.61
2022-12-11T03:31:42.548Z,92.84
2022-12-11T03:32:20.051Z,92.86
2022-12-11T03:33:01.141Z,92.62
2022-12-11T03:33:40.102Z,92.53
2022-12-11T03:34:20.389Z,93.47
2022-12-11T03:35:11.621Z,93.60
2022-12-11T03:35:48.702Z,93.31
2022-12-11T03:36:25.357Z,92.63
2022-12-11T03:36:59.008Z,92.75
2022-12-11T03:37:34.827Z,92.66
2022-12-11T03:38:11.846Z,92.87
2022-12-11T03:38:49.194Z,93.30
2022-12-11T03:39:29.294Z,93.54
2022-12-11T03:40:07.840Z,93.33
2022-12-11T03:40:44.413Z,93.13
2022-12-11T03:41:19.362Z,92.54
2022-12-11T03:41:53.462Z,91.61
2022-12-11T03:42:27.079Z,91.80
2022-12-11T03:43:00.589Z,91.80
2022-12-11T03:43:33.259Z,91.34
2022-12-11T03:44:05.259Z,92.03
2022-12-11T03:44:37.863Z,92.39
2022-12-11T03:45:11.340Z,92.60
2022-12-11T03:45:45.396Z,92.98
2022-12-11T03:46:21.112Z,93.22
2022-12-11T03:46:55.075Z,93.31
2022-12-11T03:47:29.443Z,93.22
2022-12-11T03:48:02.847Z,93.46
2022-12-11T03:48:41.757Z,93.65
2022-12-11T03:49:20.365Z,94.12
2022-12-11T03:49:52.722Z,94.20
2022-12-11T03:50:28.000Z,93.89
2022-12-11T03:51:03.811Z,92.37
2022-12-11T03:51:36.228Z,92.21
2022-12-11T03:52:11.159Z,92.13
2022-12-11T03:52:46.298Z,92.26
2022-12-11T03:53:19.667Z,92.13
2022-12-11T03:53:53.223Z,91.28
2022-12-11T03:54:25.727Z,90.91
2022-12-11T03:55:01.254Z,90.65
2022-12-11T03:55:36.441Z,91.00
2022-12-11T03:56:11.482Z,90.73
2022-12-11T03:56:46.580Z,91.51
2022-12-11T03:57:22.735Z,92.01
2022-12-11T03:57:54.588Z,91.66
2022-12-11T03:58:26.558Z,91.47
2022-12-11T03:58:58.566Z,91.71
2022-12-11T03:59:30.391Z,91.83
2022-12-11T04:00:11.928Z,91.58
2022-12-11T04:00:43.902Z,91.25
2022-12-11T04:01:16.085Z,91.10
2022-12-11T04:01:47.940Z,91.33
2022-12-11T04:02:19.841Z,90.86
2022-12-11T04:03:13.664Z,91.40
2022-12-11T04:03:45.857Z,91.59
2022-12-11T04:04:17.777Z,91.43
2022-12-11T04:04:49.663Z,92.17
2022-12-11T04:05:21.502Z,92.05
2022-12-11T04:05:56.428Z,92.08
2022-12-11T04:06:28.652Z,92.00
2022-12-11T04:07:00.478Z,92.40
2022-12-11T04:07:32.415Z,91.99
2022-12-11T04:08:04.621Z,91.66
2022-12-11T04:08:36.613Z,91.77
2022-12-11T04:09:08.618Z,92.09
2022-12-11T04:09:40.693Z,91.76
2022-12-11T04:10:12.551Z,91.99
2022-12-11T04:10:44.823Z,92.01
2022-12-11T04:11:35.345Z,92.03
2022-12-11T04:12:07.611Z,91.27
2022-12-11T04:12:39.452Z,91.48
2022-12-11T04:13:11.690Z,91.84
2022-12-11T04:13:43.580Z,92.03
2022-12-11T04:14:34.287Z,91.79
2022-12-11T04:15:06.443Z,92.01
2022-12-11T04:15:39.230Z,91.98
2022-12-11T04:16:11.190Z,92.46
2022-12-11T04:16:43.020Z,92.51
2022-12-11T04:17:38.301Z,92.35
2022-12-11T04:18:29.182Z,92.12
2022-12-11T04:19:19.581Z,91.73
2022-12-11T04:20:10.067Z,91.28
2022-12-11T04:21:00.526Z,90.85
2022-12-11T04:21:50.913Z,90.65
2022-12-11T04:22:41.822Z,91.12
2022-12-11T04:23:35.037Z,90.97
2022-12-11T04:24:16.738Z,90.99
2022-12-11T04:24:50.168Z,90.61
2022-12-11T04:25:21.959Z,90.54
2022-12-11T04:25:53.813Z,90.44
2022-12-11T04:26:26.178Z,90.27
2022-12-11T04:26:58.208Z,90.41
2022-12-11T04:27:49.213Z,90.88
2022-12-11T04:28:21.502Z,90.60
2022-12-11T04:28:53.369Z,91.29
2022-12-11T04:29:25.348Z,91.19
2022-12-11T04:29:57.229Z,90.81
2022-12-11T04:30:33.954Z,91.66
2022-12-11T04:31:07.213Z,91.11
2022-12-11T04:31:39.178Z,91.01
2022-12-11T04:32:10.962Z,91.26
2022-12-11T04:32:43.785Z,91.12
2022-12-11T04:33:15.707Z,90.82
2022-12-11T04:33:47.989Z,91.08
2022-12-11T04:34:19.867Z,91.01
2022-12-11T04:34:51.737Z,91.01
2022-12-11T04:35:23.706Z,90.87
2022-12-11T04:35:59.034Z,90.99
2022-12-11T04:36:30.858Z,90.22
2022-12-11T04:37:02.737Z,90.09
2022-12-11T04:37:34.735Z,90.18
2022-12-11T04:38:06.872Z,90.74
2022-12-11T04:38:38.902Z,91.30
2022-12-11T04:39:10.759Z,91.19
2022-12-11T04:39:42.622Z,91.13
2022-12-11T04:40:17.403Z,90.80
2022-12-11T04:40:49.252Z,90.70
2022-12-11T04:41:21.136Z,91.01
2022-12-11T04:41:52.990Z,90.78
2022-12-11T04:42:24.946Z,90.66
2022-12-11T04:42:56.851Z,90.29
2022-12-11T04:43:29.241Z,90.71
2022-12-11T04:44:01.409Z,91.53
2022-12-11T04:44:34.202Z,91.95
2022-12-11T04:45:08.258Z,91.92
2022-12-11T04:45:40.290Z,91.55
2022-12-11T04:46:22.835Z,90.98
2022-12-11T04:46:54.725Z,90.95
2022-12-11T04:47:27.531Z,90.82
2022-12-11T04:47:59.655Z,90.87
2022-12-11T04:48:31.931Z,91.16
2022-12-11T04:49:03.876Z,91.49
2022-12-11T04:49:35.709Z,91.31
2022-12-11T04:50:09.762Z,91.34
2022-12-11T04:50:41.592Z,90.52
2022-12-11T04:51:14.289Z,90.74
2022-12-11T04:51:46.146Z,91.11
2022-12-11T04:52:18.254Z,91.34
2022-12-11T04:52:50.075Z,91.07
2022-12-11T04:53:21.926Z,91.02
2022-12-11T04:53:55.121Z,91.39
2022-12-11T04:54:29.793Z,91.44
2022-12-11T04:55:01.618Z,91.62
2022-12-11T04:55:33.451Z,91.37
2022-12-11T04:56:09.942Z,91.04
2022-12-11T04:56:41.764Z,91.18
2022-12-11T04:57:13.575Z,90.93
2022-12-11T04:57:45.397Z,90.91
2022-12-11T04:58:17.484Z,90.53
2022-12-11T04:58:49.851Z,91.57
2022-12-11T04:59:22.124Z,92.43
2022-12-11T04:59:53.985Z,92.48
2022-12-11T05:00:26.043Z,92.74
2022-12-11T05:00:57.883Z,92.13
2022-12-11T05:01:29.927Z,92.10
2022-12-11T05:02:01.853Z,91.94
2022-12-11T05:02:38.628Z,91.77
2022-12-11T05:03:10.682Z,91.32
2022-12-11T05:03:42.834Z,91.49
2022-12-11T05:04:14.699Z,91.51
2022-12-11T05:04:46.871Z,91.53
2022-12-11T05:05:18.781Z,91.76
2022-12-11T05:05:52.943Z,91.52
2022-12-11T05:06:24.772Z,91.54
2022-12-11T05:06:56.588Z,91.67
2022-12-11T05:07:28.428Z,91.81
2022-12-11T05:08:00.324Z,91.76
2022-12-11T05:08:35.587Z,91.45
2022-12-11T05:09:11.212Z,90.96
2022-12-11T05:09:43.118Z,90.35
2022-12-11T05:10:15.217Z,90.32
2022-12-11T05:11:05.517Z,90.34
2022-12-11T05:11:37.378Z,90.11
2022-12-11T05:12:09.315Z,90.38
2022-12-11T05:12:41.194Z,90.42
2022-12-11T05:13:13.071Z,90.65
2022-12-11T05:13:45.652Z,90.98
2022-12-11T05:14:17.612Z,90.84
2022-12-11T05:14:54.507Z,90.57
2022-12-11T05:15:26.623Z,90.25
2022-12-11T05:15:59.059Z,89.78
2022-12-11T05:16:30.977Z,90.03
2022-12-11T05:17:02.855Z,90.13
2022-12-11T05:17:34.692Z,90.48
2022-12-11T05:18:06.581Z,90.67
2022-12-11T05:18:38.519Z,90.56
2022-12-11T05:19:10.428Z,90.46
2022-12-11T05:19:42.237Z,90.21
2022-12-11T05:20:14.257Z,90.04
2022-12-11T05:21:01.535Z,89.86
2022-12-11T05:21:35.196Z,89.90
2022-12-11T05:22:07.321Z,90.30
2022-12-11T05:22:39.378Z,90.09
2022-12-11T05:23:11.306Z,90.62
2022-12-11T05:23:43.247Z,90.53
2022-12-11T05:24:15.232Z,90.35
2022-12-11T05:24:47.078Z,90.46
2022-12-11T05:25:18.917Z,90.53
2022-12-11T05:26:02.232Z,90.69
2022-12-11T05:26:34.055Z,91.06
2022-12-11T05:27:05.919Z,91.39
2022-12-11T05:27:37.765Z,91.39
2022-12-11T05:28:09.601Z,91.56
2022-12-11T05:28:41.783Z,91.23
2022-12-11T05:29:13.685Z,91.30
2022-12-11T05:29:45.506Z,91.08
2022-12-11T05:30:17.425Z,91.19
2022-12-11T05:30:49.250Z,91.00
2022-12-11T05:31:26.665Z,91.31
2022-12-11T05:31:58.885Z,91.07
2022-12-11T05:32:30.738Z,90.70
2022-12-11T05:33:02.562Z,90.65
2022-12-11T05:33:34.943Z,90.16
2022-12-11T05:34:06.768Z,89.61
2022-12-11T05:34:38.660Z,89.84
2022-12-11T05:35:10.648Z,90.25
2022-12-11T05:35:47.872Z,90.10
2022-12-11T05:36:39.573Z,89.89
2022-12-11T05:37:11.719Z,89.93
2022-12-11T05:37:43.538Z,90.48
2022-12-11T05:38:15.695Z,91.21
2022-12-11T05:38:48.496Z,91.48
2022-12-11T05:39:20.515Z,90.97
2022-12-11T05:39:52.350Z,97.69
2022-12-11T05:40:24.184Z,93.75
2022-12-11T05:41:04.753Z,90.97
2022-12-11T05:41:36.594Z,91.45
2022-12-11T05:42:08.518Z,91.85
2022-12-11T05:42:40.780Z,91.43
2022-12-11T05:43:12.661Z,90.88
2022-12-11T05:43:44.862Z,90.60
2022-12-11T05:44:16.702Z,90.12
2022-12-11T05:44:49.801Z,89.73
2022-12-11T05:45:21.691Z,89.44
2022-12-11T05:45:53.852Z,89.99
2022-12-11T05:46:29.640Z,90.10
2022-12-11T05:47:01.564Z,96.11
2022-12-11T05:47:33.483Z,92.12
2022-12-11T05:48:05.858Z,91.35
2022-12-11T05:48:38.477Z,91.80
2022-12-11T05:49:10.856Z,91.72
2022-12-11T05:49:43.439Z,91.30
2022-12-11T05:50:15.295Z,90.87
2022-12-11T05:50:59.865Z,90.43
2022-12-11T05:51:34.303Z,91.04
2022-12-11T05:52:06.176Z,91.31
2022-12-11T05:52:38.051Z,90.94
2022-12-11T05:53:10.138Z,90.56
2022-12-11T05:53:44.897Z,90.62
2022-12-11T05:54:17.317Z,90.57
2022-12-11T05:54:50.487Z,91.43
2022-12-11T05:55:22.335Z,92.02
2022-12-11T05:55:55.207Z,92.20
2022-12-11T05:56:30.012Z,91.29
2022-12-11T05:57:01.828Z,90.40
2022-12-11T05:57:33.646Z,89.90
2022-12-11T05:58:05.514Z,90.32
2022-12-11T05:58:38.647Z,90.71
2022-12-11T05:59:10.519Z,90.87
2022-12-11T05:59:42.571Z,92.18
2022-12-11T06:00:14.654Z,93.42
2022-12-11T06:00:48.478Z,92.98
2022-12-11T06:01:20.697Z,92.80
2022-12-11T06:01:52.722Z,92.60
2022-12-11T06:02:24.700Z,92.31
2022-12-11T06:02:56.648Z,92.88
2022-12-11T06:03:28.707Z,92.92
2022-12-11T06:04:01.140Z,92.51
2022-12-11T06:04:33.725Z,92.69
2022-12-11T06:05:05.904Z,92.37
2022-12-11T06:05:38.838Z,92.21
2022-12-11T06:06:11.403Z,92.03
2022-12-11T06:06:43.877Z,92.00
2022-12-11T06:07:15.717Z,92.43
2022-12-11T06:07:47.736Z,92.66
2022-12-11T06:08:19.716Z,92.65
2022-12-11T06:08:53.245Z,92.89
2022-12-11T06:09:25.198Z,92.38
2022-12-11T06:09:57.097Z,92.06
2022-12-11T06:10:28.915Z,91.66
2022-12-11T06:11:01.427Z,91.81
2022-12-11T06:11:34.569Z,91.93
2022-12-11T06:12:06.542Z,92.49
2022-12-11T06:12:38.427Z,92.65
2022-12-11T06:13:10.269Z,92.19
2022-12-11T06:13:42.171Z,92.51
2022-12-11T06:14:14.419Z,92.63
2022-12-11T06:14:46.239Z,92.42
2022-12-11T06:15:18.186Z,92.34
2022-12-11T06:15:50.103Z,91.33
2022-12-11T06:16:22.611Z,91.51
2022-12-11T06:16:54.808Z,91.62
2022-12-11T06:17:26.607Z,91.35
2022-12-11T06:17:58.425Z,91.35
2022-12-11T06:18:30.260Z,91.27
2022-12-11T06:19:02.074Z,91.40
2022-12-11T06:19:36.923Z,91.34
2022-12-11T06:20:09.254Z,91.33
2022-12-11T06:20:41.268Z,91.58
2022-12-11T06:21:25.611Z,91.98
2022-12-11T06:21:57.791Z,92.12
2022-12-11T06:22:30.630Z,92.16
2022-12-11T06:23:02.462Z,92.40
2022-12-11T06:23:34.289Z,92.61
2022-12-11T06:24:06.630Z,92.58
2022-12-11T06:24:38.657Z,92.36
2022-12-11T06:25:10.807Z,92.50
2022-12-11T06:25:43.005Z,92.91
2022-12-11T06:26:16.643Z,92.21
2022-12-11T06:26:48.496Z,92.11
2022-12-11T06:27:20.738Z,91.96
2022-12-11T06:27:52.612Z,91.31
2022-12-11T06:28:24.469Z,91.87
2022-12-11T06:28:56.373Z,92.17
2022-12-11T06:29:28.227Z,92.57
2022-12-11T06:30:00.088Z,92.05
2022-12-11T06:30:38.840Z,91.84
2022-12-11T06:31:11.664Z,91.96
2022-12-11T06:31:43.562Z,91.70
2022-12-11T06:32:15.431Z,91.40
2022-12-11T06:32:48.304Z,91.27
2022-12-11T06:33:20.146Z,91.39
2022-12-11T06:33:51.950Z,91.18
2022-12-11T06:34:23.924Z,91.28
2022-12-11T06:34:55.767Z,90.77
2022-12-11T06:35:27.603Z,91.61
2022-12-11T06:36:06.947Z,91.65
2022-12-11T06:36:38.807Z,91.46
2022-12-11T06:37:10.842Z,90.73
2022-12-11T06:37:42.791Z,90.72
2022-12-11T06:38:14.910Z,91.00
2022-12-11T06:38:47.759Z,91.24
2022-12-11T06:39:20.273Z,91.39
2022-12-11T06:39:52.115Z,90.77
2022-12-11T06:40:23.929Z,90.64
2022-12-11T06:41:00.393Z,90.91
2022-12-11T06:41:32.400Z,90.83
2022-12-11T06:42:04.368Z,90.61
2022-12-11T06:42:36.223Z,90.81
2022-12-11T06:43:08.087Z,91.32
2022-12-11T06:43:41.355Z,91.15
2022-12-11T06:44:13.182Z,90.95
2022-12-11T06:44:45.007Z,90.63
2022-12-11T06:45:16.940Z,90.73
2022-12-11T06:45:48.797Z,90.58
2022-12-11T06:46:21.452Z,90.67
2022-12-11T06:46:53.299Z,91.04
2022-12-11T06:47:34.681Z,91.19
2022-12-11T06:48:06.638Z,91.44
2022-12-11T06:48:38.805Z,91.90
2022-12-11T06:49:10.907Z,91.75
2022-12-11T06:49:43.064Z,91.57
2022-12-11T06:50:14.857Z,91.13
2022-12-11T06:50:47.014Z,90.92
2022-12-11T06:51:22.116Z,91.16
2022-12-11T06:51:54.010Z,91.08
2022-12-11T06:52:29.584Z,90.68
2022-12-11T06:53:01.449Z,90.83
2022-12-11T06:53:33.350Z,90.74
2022-12-11T06:54:05.217Z,90.50
2022-12-11T06:54:37.332Z,90.35
2022-12-11T06:55:09.612Z,89.88
2022-12-11T06:55:42.163Z,90.65
2022-12-11T06:56:15.475Z,91.13
2022-12-11T06:56:47.865Z,91.19
2022-12-11T06:57:19.920Z,91.56
2022-12-11T06:57:51.731Z,91.10
2022-12-11T06:58:23.573Z,90.58
2022-12-11T06:58:57.102Z,91.00
2022-12-11T06:59:28.923Z,91.34
2022-12-11T07:00:01.073Z,91.36
2022-12-11T07:00:35.862Z,90.40
2022-12-11T07:01:15.340Z,89.95
2022-12-11T07:01:47.381Z,90.40
2022-12-11T07:02:20.343Z,90.65
2022-12-11T07:02:52.181Z,90.88
2022-12-11T07:03:24.005Z,90.79
2022-12-11T07:03:57.741Z,90.12
2022-12-11T07:04:30.647Z,89.87
2022-12-11T07:05:03.260Z,89.64
2022-12-11T07:05:35.113Z,89.24
2022-12-11T07:06:07.400Z,89.63
2022-12-11T07:06:39.233Z,89.55
2022-12-11T07:07:11.969Z,89.07
2022-12-11T07:07:43.827Z,89.11
2022-12-11T07:08:16.351Z,88.71
2022-12-11T07:08:48.197Z,88.75
2022-12-11T07:09:20.071Z,89.08
2022-12-11T07:09:51.956Z,89.76
2022-12-11T07:10:24.669Z,89.84
2022-12-11T07:11:06.599Z,89.85
2022-12-11T07:11:38.484Z,90.38
2022-12-11T07:12:10.413Z,90.41
2022-12-11T07:12:42.267Z,90.53
2022-12-11T07:13:14.170Z,90.37
2022-12-11T07:13:46.707Z,90.13
2022-12-11T07:14:18.968Z,89.69
2022-12-11T07:14:50.800Z,89.06
2022-12-11T07:15:22.732Z,88.98
2022-12-11T07:15:55.042Z,88.81
2022-12-11T07:16:27.189Z,88.52
2022-12-11T07:16:59.438Z,88.92
2022-12-11T07:17:32.041Z,88.83
2022-12-11T07:18:03.946Z,89.29
2022-12-11T07:18:36.117Z,89.55
2022-12-11T07:19:08.054Z,89.69
2022-12-11T07:19:40.779Z,88.81
2022-12-11T07:20:12.826Z,88.44
2022-12-11T07:20:44.804Z,88.73
2022-12-11T07:21:18.502Z,88.67
2022-12-11T07:21:50.505Z,88.63
2022-12-11T07:22:22.373Z,88.32
2022-12-11T07:22:54.820Z,87.91
2022-12-11T07:23:29.486Z,88.16
2022-12-11T07:24:01.335Z,88.37
2022-12-11T07:24:33.147Z,89.11
2022-12-11T07:25:05.298Z,89.31
2022-12-11T07:25:38.051Z,89.05
2022-12-11T07:26:16.620Z,88.95
2022-12-11T07:26:48.790Z,88.52